Time;durP1;ratioP1;P1;durP2;ratioP2;P2;SDS_P1;SDS_P2;PMS_P1;PMS_P2;Temp;Humidity;BMP_temperature;BMP_pressure;BME280_temperature;BME280_humidity;BME280_pressure;Samples;Min_cycle;Max_cycle;Signal;HPM_P1;HPM_P2
2024/01/26 00:01:39;;;;;;;17.03;12.40;;;;;;;10.28;100.00;99166.72;4240326;27;20658;-80
2024/01/26 00:03:44;;;;;;;17.70;11.77;;;;;;;10.29;100.00;99168.41;4232851;27;20617;-81
2024/01/26 00:05:48;;;;;;;18.60;11.97;;;;;;;10.29;100.00;99173.63;4234107;27;20625;-80
2024/01/26 00:07:51;;;;;;;18.40;13.27;;;;;;;10.29;100.00;99165.81;4238641;27;20719;-80
2024/01/26 00:09:55;;;;;;;19.60;11.70;;;;;;;10.29;100.00;99167.59;4231519;27;20625;-81
2024/01/26 00:11:58;;;;;;;19.60;12.60;;;;;;;10.30;100.00;99170.13;4219897;27;20617;-81
2024/01/26 00:14:01;;;;;;;18.17;12.00;;;;;;;10.30;100.00;99172.72;4233422;27;20718;-80
2024/01/26 00:16:05;;;;;;;15.50;11.30;;;;;;;10.31;100.00;99163.97;4231845;27;20653;-81
2024/01/26 00:18:08;;;;;;;17.47;11.40;;;;;;;10.32;100.00;99163.88;4235788;27;21072;-80
2024/01/26 00:20:13;;;;;;;18.70;11.50;;;;;;;10.32;100.00;99158.66;4232356;27;20636;-81
2024/01/26 00:22:15;;;;;;;15.67;11.00;;;;;;;10.32;100.00;99160.44;4251208;27;20648;-81
2024/01/26 00:24:18;;;;;;;13.10;10.30;;;;;;;10.30;100.00;99158.81;4236345;27;21178;-81
2024/01/26 00:26:26;;;;;;;20.43;12.00;;;;;;;10.31;100.00;99170.94;4223644;28;20630;-81
2024/01/26 00:28:29;;;;;;;17.20;10.70;;;;;;;10.30;100.00;99167.50;4231904;27;20671;-81
2024/01/26 00:30:32;;;;;;;21.07;11.30;;;;;;;10.32;100.00;99167.44;4265262;27;21023;-81
2024/01/26 00:32:35;;;;;;;22.93;11.40;;;;;;;10.32;100.00;99173.47;4259733;27;21236;-81
2024/01/26 00:34:38;;;;;;;15.60;10.50;;;;;;;10.32;100.00;99169.09;4260045;27;20733;-81
2024/01/26 00:36:44;;;;;;;15.43;11.10;;;;;;;10.33;100.00;99170.78;4249038;27;20634;-81
2024/01/26 00:38:49;;;;;;;14.60;10.03;;;;;;;10.36;100.00;99175.03;4255440;27;20617;-81
2024/01/26 00:40:52;;;;;;;14.40;10.27;;;;;;;10.33;100.00;99173.41;4258404;27;20655;-81
2024/01/26 00:42:54;;;;;;;16.17;11.27;;;;;;;10.34;100.00;99176.84;4237427;27;20661;-81
2024/01/26 00:44:57;;;;;;;15.17;10.70;;;;;;;10.35;100.00;99186.38;4257493;27;20786;-81
2024/01/26 00:47:00;;;;;;;15.40;9.40;;;;;;;10.36;100.00;99185.44;4253714;27;20616;-81
2024/01/26 00:49:03;;;;;;;16.40;10.20;;;;;;;10.37;100.00;99192.34;4253572;27;20985;-82
2024/01/26 00:51:07;;;;;;;18.17;9.87;;;;;;;10.37;100.00;99182.78;4231348;27;20291;-81
2024/01/26 00:53:12;;;;;;;16.63;9.80;;;;;;;10.39;100.00;99174.88;4237450;27;20665;-82
2024/01/26 00:55:15;;;;;;;15.77;10.07;;;;;;;10.41;100.00;99175.63;4259108;27;20607;-81
2024/01/26 00:57:18;;;;;;;14.27;10.17;;;;;;;10.40;100.00;99173.94;4242062;27;20617;-81
2024/01/26 00:59:20;;;;;;;12.87;9.33;;;;;;;10.42;100.00;99174.72;4258159;27;20671;-82
2024/01/26 01:01:24;;;;;;;16.60;9.77;;;;;;;10.43;100.00;99165.94;4229230;27;21071;-82
2024/01/26 01:03:28;;;;;;;15.07;9.83;;;;;;;10.44;100.00;99172.88;4258958;27;20691;-81
2024/01/26 01:05:31;;;;;;;13.27;10.37;;;;;;;10.45;100.00;99171.97;4225837;27;20622;-81
2024/01/26 01:07:35;;;;;;;13.37;8.93;;;;;;;10.46;100.00;99178.84;4255200;27;20666;-81
2024/01/26 01:09:41;;;;;;;15.93;8.93;;;;;;;10.45;100.00;99185.00;4238739;27;20633;-81
2024/01/26 01:11:44;;;;;;;18.77;11.10;;;;;;;10.43;100.00;99185.06;4242149;27;20708;-82
2024/01/26 01:13:47;;;;;;;14.30;9.90;;;;;;;10.43;100.00;99186.81;4254265;27;20735;-81
2024/01/26 01:15:51;;;;;;;16.00;12.23;;;;;;;10.42;100.00;99191.19;4234931;27;20699;-82
2024/01/26 01:17:54;;;;;;;19.30;14.67;;;;;;;10.42;100.00;99191.19;4256001;27;20662;-81
2024/01/26 01:19:56;;;;;;;23.10;15.30;;;;;;;10.36;100.00;99191.50;4254723;27;20624;-82
2024/01/26 01:22:00;;;;;;;21.77;14.97;;;;;;;10.32;100.00;99194.34;4236327;27;20692;-81
2024/01/26 01:24:03;;;;;;;20.13;15.03;;;;;;;10.28;100.00;99191.97;4256306;27;20685;-82
2024/01/26 01:26:08;;;;;;;21.60;14.03;;;;;;;10.25;100.00;99198.16;4235984;27;20665;-82
2024/01/26 01:28:11;;;;;;;20.67;14.50;;;;;;;10.27;100.00;99193.72;4236947;27;20614;-81
2024/01/26 01:30:14;;;;;;;18.60;12.73;;;;;;;10.29;100.00;99189.28;4221679;27;20687;-81
2024/01/26 01:32:17;;;;;;;17.00;12.50;;;;;;;10.31;100.00;99192.63;4236229;27;21351;-81
2024/01/26 01:34:20;;;;;;;19.63;13.93;;;;;;;10.29;100.00;99194.50;4238295;27;20712;-80
2024/01/26 01:36:24;;;;;;;13.60;11.43;;;;;;;10.27;100.00;99191.13;4255200;27;20663;-80
2024/01/26 01:38:27;;;;;;;19.10;13.33;;;;;;;10.27;100.00;99198.09;4221904;27;20621;-81
2024/01/26 01:40:32;;;;;;;17.17;12.87;;;;;;;10.28;100.00;99199.78;4241432;27;20644;-81
2024/01/26 01:42:36;;;;;;;16.00;11.25;;;;;;;10.28;100.00;99194.56;4232835;27;20649;-80
2024/01/26 01:44:38;;;;;;;15.43;10.07;;;;;;;10.30;100.00;99193.59;4236192;27;20230;-81
2024/01/26 01:46:41;;;;;;;16.00;11.77;;;;;;;10.32;100.00;99194.34;4252284;27;20609;-80
2024/01/26 01:48:44;;;;;;;12.70;9.40;;;;;;;10.31;100.00;99197.84;4255515;27;20648;-81
2024/01/26 01:50:48;;;;;;;17.73;10.63;;;;;;;10.33;100.00;99201.25;4236355;27;20640;-80
2024/01/26 01:52:52;;;;;;;17.77;10.63;;;;;;;10.35;100.00;99199.41;4236305;27;21186;-80
2024/01/26 01:54:57;;;;;;;16.23;10.07;;;;;;;10.34;100.00;99190.75;4250952;27;20636;-80
2024/01/26 01:57:03;;;;;;;14.00;11.07;;;;;;;10.32;100.00;99191.72;4235389;27;20678;-81
2024/01/26 01:59:09;;;;;;;14.93;9.70;;;;;;;10.32;100.00;99196.13;4256916;27;20608;-81
2024/01/26 02:01:12;;;;;;;17.27;10.03;;;;;;;10.32;100.00;99189.97;4235778;27;20612;-80
2024/01/26 02:03:16;;;;;;;16.17;11.83;;;;;;;10.31;100.00;99186.59;4237847;27;21186;-81
2024/01/26 02:05:19;;;;;;;15.60;11.00;;;;;;;10.30;100.00;99185.75;4255391;27;21066;-80
2024/01/26 02:07:21;;;;;;;17.00;10.50;;;;;;;10.31;100.00;99190.03;4257124;27;21223;-80
2024/01/26 02:09:25;;;;;;;12.60;9.37;;;;;;;10.31;100.00;99182.22;4245541;27;20727;-80
2024/01/26 02:11:28;;;;;;;16.88;12.05;;;;;;;10.36;100.00;99188.91;4256955;27;20623;-81
2024/01/26 02:13:31;;;;;;;12.93;10.60;;;;;;;10.40;100.00;99189.56;4223973;27;20216;-80
2024/01/26 02:15:36;;;;;;;12.60;9.53;;;;;;;10.41;100.00;99191.28;4236389;27;23511;-80
2024/01/26 02:17:46;;;;;;;18.10;10.80;;;;;;;10.43;100.00;99186.81;4236277;27;20660;-80
2024/01/26 02:19:49;;;;;;;13.47;10.10;;;;;;;10.45;100.00;99190.22;4256277;27;20628;-80
2024/01/26 02:21:52;;;;;;;13.87;9.77;;;;;;;10.46;100.00;99189.28;4239398;27;20722;-80
2024/01/26 02:23:56;;;;;;;10.20;8.67;;;;;;;10.48;100.00;99190.88;4252104;27;20641;-80
2024/01/26 02:25:59;;;;;;;10.97;8.87;;;;;;;10.49;100.00;99192.59;4238895;27;20617;-80
2024/01/26 02:28:02;;;;;;;13.60;8.60;;;;;;;10.53;100.00;99188.88;4239913;27;20676;-80
2024/01/26 02:30:06;;;;;;;12.60;8.83;;;;;;;10.56;100.00;99190.50;4256257;27;20607;-81
2024/01/26 02:32:10;;;;;;;12.67;9.03;;;;;;;10.58;100.00;99184.28;4236879;27;21203;-80
2024/01/26 02:34:13;;;;;;;12.13;9.23;;;;;;;10.60;100.00;99189.41;4239341;27;20728;-81
2024/01/26 02:36:17;;;;;;;12.87;9.17;;;;;;;10.61;100.00;99184.13;4236126;27;20634;-80
2024/01/26 02:38:20;;;;;;;11.50;9.53;;;;;;;10.62;100.00;99191.03;4241753;27;21115;-80
2024/01/26 02:40:25;;;;;;;13.47;8.70;;;;;;;10.62;100.00;99192.81;4237562;27;20618;-81
2024/01/26 02:42:27;;;;;;;12.73;8.90;;;;;;;10.63;100.00;99184.03;4257827;27;20700;-80
2024/01/26 02:44:30;;;;;;;14.63;9.03;;;;;;;10.62;100.00;99188.41;4252999;27;21193;-80
2024/01/26 02:46:33;;;;;;;13.27;8.60;;;;;;;10.64;100.00;99204.00;4237997;27;20613;-80
2024/01/26 02:48:36;;;;;;;11.50;9.10;;;;;;;10.64;100.00;99190.94;4244030;27;20649;-81
2024/01/26 02:50:40;;;;;;;11.60;8.43;;;;;;;10.65;100.00;99192.66;4226877;27;20622;-80
2024/01/26 02:52:42;;;;;;;12.17;7.97;;;;;;;10.63;100.00;99191.84;4254898;27;21233;-80
2024/01/26 02:54:45;;;;;;;12.73;8.67;;;;;;;10.60;100.00;99182.44;4239161;27;20710;-80
2024/01/26 02:56:50;;;;;;;10.63;8.67;;;;;;;10.57;100.00;99186.94;4230274;27;20617;-81
2024/01/26 02:58:53;;;;;;;11.03;8.40;;;;;;;10.58;100.00;99188.66;4251863;27;20615;-81
2024/01/26 03:00:56;;;;;;;11.83;9.03;;;;;;;10.59;100.00;99187.75;4221046;27;20685;-80
2024/01/26 03:02:59;;;;;;;11.43;9.07;;;;;;;10.61;100.00;99191.09;4256871;27;20651;-80
2024/01/26 03:05:02;;;;;;;12.60;8.73;;;;;;;10.64;100.00;99198.78;4262708;27;20653;-80
2024/01/26 03:07:05;;;;;;;10.70;9.17;;;;;;;10.64;100.00;99196.16;4236196;27;20668;-81
2024/01/26 03:09:09;;;;;;;11.60;8.87;;;;;;;10.65;100.00;99198.69;4249407;27;20645;-80
2024/01/26 03:11:12;;;;;;;12.75;9.80;;;;;;;10.69;100.00;99188.94;4254875;27;20740;-80
2024/01/26 03:13:18;;;;;;;12.40;9.50;;;;;;;10.67;100.00;99193.41;4236461;27;20599;-80
2024/01/26 03:15:21;;;;;;;10.57;7.70;;;;;;;10.67;100.00;99190.78;4230382;27;20641;-81
2024/01/26 03:17:24;;;;;;;11.43;8.03;;;;;;;10.66;100.00;99183.88;4256486;27;20634;-80
2024/01/26 03:19:27;;;;;;;9.93;7.90;;;;;;;10.68;100.00;99176.84;4229757;27;20774;-81
2024/01/26 03:21:31;;;;;;;10.60;7.80;;;;;;;10.69;100.00;99173.28;4219770;27;20658;-81
2024/01/26 03:23:33;;;;;;;9.83;7.60;;;;;;;10.74;100.00;99174.75;4250716;27;20674;-80
2024/01/26 03:25:37;;;;;;;10.10;8.10;;;;;;;10.68;100.00;99177.66;4237462;27;20632;-81
2024/01/26 03:27:40;;;;;;;10.17;7.60;;;;;;;10.69;100.00;99168.94;4255334;27;21023;-80
2024/01/26 03:29:44;;;;;;;9.53;7.33;;;;;;;10.70;100.00;99169.75;4237930;27;21273;-80
2024/01/26 03:31:47;;;;;;;11.00;8.30;;;;;;;10.72;100.00;99179.22;4254431;27;20622;-80
2024/01/26 03:33:50;;;;;;;9.83;7.80;;;;;;;10.73;100.00;99180.88;4237001;27;20623;-81
2024/01/26 03:35:54;;;;;;;9.40;7.47;;;;;;;10.75;100.00;99172.97;4216389;27;20633;-80
2024/01/26 03:37:57;;;;;;;10.20;8.20;;;;;;;10.74;100.00;99171.31;4254939;27;20639;-81
2024/01/26 03:40:00;;;;;;;8.50;7.60;;;;;;;10.73;100.00;99177.44;4238173;27;21211;-80
2024/01/26 03:42:03;;;;;;;10.20;8.40;;;;;;;10.69;100.00;99174.16;4216311;27;20741;-80
2024/01/26 03:44:07;;;;;;;9.83;8.13;;;;;;;10.68;100.00;99182.88;4234998;27;20657;-80
2024/01/26 03:46:11;;;;;;;9.10;7.70;;;;;;;10.67;100.00;99186.41;4250283;27;20621;-80
2024/01/26 03:48:14;;;;;;;8.43;7.53;;;;;;;10.67;100.00;99180.34;4251953;27;21049;-80
2024/01/26 03:50:18;;;;;;;10.60;8.70;;;;;;;10.66;100.00;99174.31;4234075;27;21109;-80
2024/01/26 03:52:21;;;;;;;9.37;7.87;;;;;;;10.65;100.00;99183.03;4253892;27;20637;-80
2024/01/26 03:54:24;;;;;;;8.90;8.00;;;;;;;10.66;100.00;99182.13;4220757;28;21547;-81
2024/01/26 03:56:27;;;;;;;10.90;7.87;;;;;;;10.64;100.00;99185.72;4234443;27;21033;-80
2024/01/26 03:58:29;;;;;;;9.93;8.30;;;;;;;10.63;100.00;99190.13;4239021;27;20685;-80
2024/01/26 04:00:34;;;;;;;8.60;7.13;;;;;;;10.64;100.00;99196.16;4239694;27;21028;-80
2024/01/26 04:02:37;;;;;;;9.30;7.20;;;;;;;10.64;100.00;99196.16;4249460;27;21182;-80
2024/01/26 04:04:41;;;;;;;9.23;7.20;;;;;;;10.65;100.00;99205.69;4233048;27;20683;-80
2024/01/26 04:06:44;;;;;;;10.00;7.53;;;;;;;10.65;100.00;99196.09;4239209;27;20665;-80
2024/01/26 04:08:47;;;;;;;11.93;8.13;;;;;;;10.66;100.00;99205.63;4232548;27;20653;-81
2024/01/26 04:10:50;;;;;;;10.63;7.67;;;;;;;10.67;100.00;99216.88;4234480;27;20646;-81
2024/01/26 04:12:53;;;;;;;10.00;7.63;;;;;;;10.67;100.00;99209.06;4232029;27;20621;-81
2024/01/26 04:14:56;;;;;;;10.33;8.60;;;;;;;10.68;100.00;99205.53;4243853;27;20616;-81
2024/01/26 04:16:59;;;;;;;12.40;8.33;;;;;;;10.63;100.00;99199.69;4218478;28;20613;-81
2024/01/26 04:19:03;;;;;;;10.27;8.60;;;;;;;10.57;100.00;99206.06;4255536;27;20655;-81
2024/01/26 04:21:07;;;;;;;9.07;7.70;;;;;;;10.56;100.00;99199.16;4242378;27;20616;-80
2024/01/26 04:23:09;;;;;;;9.13;8.13;;;;;;;10.54;100.00;99194.94;4249074;27;21021;-81
2024/01/26 04:25:12;;;;;;;9.00;7.30;;;;;;;10.49;100.00;99189.97;4235962;27;20625;-81
2024/01/26 04:27:14;;;;;;;10.00;7.90;;;;;;;10.49;100.00;99189.13;4241167;27;20625;-81
2024/01/26 04:29:18;;;;;;;12.03;8.73;;;;;;;10.46;100.00;99182.31;4250947;27;20649;-81
2024/01/26 04:31:22;;;;;;;8.17;7.37;;;;;;;10.45;100.00;99185.81;4233226;27;20618;-81
2024/01/26 04:33:25;;;;;;;12.60;8.45;;;;;;;10.50;100.00;99188.22;4254708;27;20651;-80
2024/01/26 04:35:30;;;;;;;9.30;7.20;;;;;;;10.53;100.00;99188.88;4235880;27;20256;-81
2024/01/26 04:37:33;;;;;;;9.90;7.50;;;;;;;10.55;100.00;99188.81;4240382;27;20630;-81
2024/01/26 04:39:36;;;;;;;7.17;5.57;;;;;;;10.58;100.00;99184.28;4236064;27;21183;-81
2024/01/26 04:41:38;;;;;;;7.13;6.00;;;;;;;10.63;100.00;99186.66;4251936;27;21226;-81
2024/01/26 04:43:42;;;;;;;6.77;4.90;;;;;;;10.65;100.00;99183.03;4235594;27;20648;-80
2024/01/26 04:45:45;;;;;;;5.97;4.23;;;;;;;10.68;100.00;99171.63;4236001;27;20679;-81
2024/01/26 04:47:48;;;;;;;5.07;3.97;;;;;;;10.71;100.00;99180.13;4225015;28;20709;-81
2024/01/26 04:49:51;;;;;;;3.70;2.90;;;;;;;10.74;100.00;99177.34;4216286;28;20622;-80
2024/01/26 04:51:55;;;;;;;3.10;2.60;;;;;;;10.76;100.00;99185.09;4238263;27;20640;-82
2024/01/26 04:53:58;;;;;;;5.43;3.47;;;;;;;10.77;100.00;99181.59;4232865;27;20614;-81
2024/01/26 04:56:02;;;;;;;5.17;3.83;;;;;;;10.79;100.00;99182.34;4248405;27;20731;-80
2024/01/26 04:58:05;;;;;;;5.23;4.30;;;;;;;10.78;100.00;99173.69;4237015;27;20803;-80
2024/01/26 05:00:10;;;;;;;5.70;4.37;;;;;;;10.75;100.00;99178.19;4240876;27;20672;-81
2024/01/26 05:02:13;;;;;;;5.67;3.87;;;;;;;10.73;100.00;99174.81;4249945;27;21209;-81
2024/01/26 05:04:16;;;;;;;6.13;4.43;;;;;;;10.72;100.00;99175.75;4217005;28;20753;-81
2024/01/26 05:06:19;;;;;;;5.00;3.83;;;;;;;10.73;100.00;99178.28;4233789;28;20621;-81
2024/01/26 05:08:24;;;;;;;6.97;4.00;;;;;;;10.74;100.00;99181.75;4251451;27;20628;-81
2024/01/26 05:10:27;;;;;;;4.37;3.20;;;;;;;10.73;100.00;99186.09;4233111;27;20658;-81
2024/01/26 05:12:31;;;;;;;7.20;4.30;;;;;;;10.74;100.00;99186.97;4233344;27;20621;-81
2024/01/26 05:14:35;;;;;;;4.83;3.30;;;;;;;10.75;100.00;99179.06;4230709;28;21080;-81
2024/01/26 05:16:38;;;;;;;4.97;3.73;;;;;;;10.77;100.00;99181.59;4217168;28;20633;-80
2024/01/26 05:18:41;;;;;;;4.23;3.27;;;;;;;10.78;100.00;99180.66;4229706;27;20647;-81
2024/01/26 05:20:44;;;;;;;3.87;2.83;;;;;;;10.79;100.00;99179.72;4248665;27;20631;-81
2024/01/26 05:22:47;;;;;;;4.77;2.97;;;;;;;10.78;100.00;99178.03;4231804;27;20665;-80
2024/01/26 05:24:50;;;;;;;4.07;2.80;;;;;;;10.78;100.00;99178.03;4213411;28;21016;-81
2024/01/26 05:26:54;;;;;;;3.90;3.03;;;;;;;10.76;100.00;99172.91;4237951;27;20640;-81
2024/01/26 05:28:57;;;;;;;6.90;3.10;;;;;;;10.76;100.00;99174.66;4232198;27;20653;-81
2024/01/26 05:31:00;;;;;;;4.37;2.97;;;;;;;10.78;100.00;99180.66;4235362;27;20618;-81
2024/01/26 05:33:03;;;;;;;4.03;2.50;;;;;;;10.80;100.00;99184.03;4240118;27;20630;-81
2024/01/26 05:35:07;;;;;;;3.30;2.33;;;;;;;10.82;100.00;99185.63;4228799;27;20622;-81
2024/01/26 05:37:10;;;;;;;3.47;2.30;;;;;;;10.86;100.00;99179.34;4250065;27;20624;-81
2024/01/26 05:39:13;;;;;;;3.10;1.83;;;;;;;10.85;100.00;99181.13;4256062;27;20624;-81
2024/01/26 05:41:17;;;;;;;3.53;1.77;;;;;;;10.85;100.00;99175.91;4253558;27;20668;-81
2024/01/26 05:43:20;;;;;;;2.57;1.60;;;;;;;10.86;100.00;99177.56;4241984;27;20616;-81
2024/01/26 05:45:23;;;;;;;2.60;1.60;;;;;;;10.86;100.00;99169.72;4225889;27;20652;-81
2024/01/26 05:47:26;;;;;;;1.90;1.33;;;;;;;10.88;100.00;99169.66;4232887;27;20720;-81
2024/01/26 05:49:29;;;;;;;2.10;1.33;;;;;;;10.87;100.00;99165.38;4233698;27;21133;-80
2024/01/26 05:51:33;;;;;;;2.10;1.27;;;;;;;10.88;100.00;99165.28;4242140;27;20632;-80
2024/01/26 05:53:36;;;;;;;3.50;1.60;;;;;;;10.89;100.00;99161.75;4256501;27;20663;-81
2024/01/26 05:55:38;;;;;;;2.47;1.30;;;;;;;10.90;99.58;99160.00;4250627;27;21149;-81
2024/01/26 05:57:44;;;;;;;2.17;1.23;;;;;;;10.88;99.84;99164.44;4232556;27;20793;-81
2024/01/26 05:59:47;;;;;;;2.03;1.40;;;;;;;10.88;100.00;99165.28;4233541;27;20655;-81
2024/01/26 06:01:51;;;;;;;3.07;1.60;;;;;;;10.90;100.00;99175.66;4252985;27;20985;-80
2024/01/26 06:03:54;;;;;;;3.10;1.40;;;;;;;10.84;100.00;99168.97;4257515;27;20612;-80
2024/01/26 06:05:57;;;;;;;2.80;1.87;;;;;;;10.86;100.00;99153.25;4237778;27;20832;-80
2024/01/26 06:08:00;;;;;;;3.43;1.50;;;;;;;10.85;100.00;99162.84;4242642;27;20620;-81
2024/01/26 06:10:04;;;;;;;4.53;1.70;;;;;;;10.85;100.00;99162.84;4243081;27;20636;-81
2024/01/26 06:12:07;;;;;;;2.00;1.40;;;;;;;10.85;100.00;99167.19;4227501;27;21144;-81
2024/01/26 06:14:12;;;;;;;2.70;1.70;;;;;;;10.81;100.00;99161.31;4256645;27;20612;-81
2024/01/26 06:16:14;;;;;;;2.50;1.23;;;;;;;10.80;100.00;99167.44;4235525;27;20633;-80
2024/01/26 06:18:18;;;;;;;2.77;1.60;;;;;;;10.81;100.00;99163.91;4226544;27;20639;-81
2024/01/26 06:20:21;;;;;;;2.30;1.40;;;;;;;10.83;100.00;99167.28;4256823;27;21188;-81
2024/01/26 06:22:24;;;;;;;2.90;1.70;;;;;;;10.87;100.00;99167.97;4237044;27;20743;-81
2024/01/26 06:24:28;;;;;;;3.00;1.53;;;;;;;10.89;100.00;99168.75;4237875;27;21108;-81
2024/01/26 06:26:31;;;;;;;2.43;1.70;;;;;;;10.87;100.00;99178.41;4254467;27;20654;-81
2024/01/26 06:28:34;;;;;;;2.60;1.50;;;;;;;10.86;100.00;99171.50;4255767;27;20711;-81
2024/01/26 06:30:39;;;;;;;2.57;1.50;;;;;;;10.86;100.00;99180.16;4236096;27;20650;-81
2024/01/26 06:32:44;;;;;;;2.40;1.60;;;;;;;10.80;100.00;99176.22;4238589;27;20624;-81
2024/01/26 06:34:47;;;;;;;3.20;1.10;;;;;;;10.80;100.00;99171.81;4240074;27;20655;-80
2024/01/26 06:36:50;;;;;;;2.80;1.43;;;;;;;10.81;100.00;99161.31;4253698;27;20715;-81
2024/01/26 06:38:53;;;;;;;2.20;1.40;;;;;;;10.81;100.00;99166.53;4237334;27;21244;-80
2024/01/26 06:40:59;;;;;;;3.03;2.40;;;;;;;10.83;100.00;99175.09;4242512;27;22061;-81
2024/01/26 06:43:06;;;;;;;2.70;1.70;;;;;;;10.80;100.00;99165.78;4243853;27;20720;-81
2024/01/26 06:45:10;;;;;;;2.30;1.53;;;;;;;10.80;100.00;99173.59;4222953;27;20654;-81
2024/01/26 06:47:15;;;;;;;3.00;1.70;;;;;;;10.79;100.00;99169.28;4243834;27;21237;-81
2024/01/26 06:49:18;;;;;;;2.10;1.50;;;;;;;10.78;100.00;99170.22;4237154;27;21029;-80
2024/01/26 06:51:21;;;;;;;3.97;1.90;;;;;;;10.82;100.00;99180.41;4227807;27;20621;-81
2024/01/26 06:53:24;;;;;;;2.67;1.90;;;;;;;10.87;100.00;99181.88;4242202;27;20637;-80
2024/01/26 06:55:27;;;;;;;3.07;2.20;;;;;;;10.89;100.00;99181.78;4261287;27;21169;-81
2024/01/26 06:57:29;;;;;;;2.20;1.50;;;;;;;10.87;100.00;99179.25;4237136;27;21293;-80
2024/01/26 06:59:37;;;;;;;3.00;1.80;;;;;;;10.87;100.00;99174.03;4238462;27;20621;-81
2024/01/26 07:01:40;;;;;;;2.10;1.53;;;;;;;10.88;100.00;99177.47;4241337;27;20659;-81
2024/01/26 07:03:44;;;;;;;2.67;1.80;;;;;;;10.91;100.00;99175.53;4244200;27;20672;-83
2024/01/26 07:05:48;;;;;;;2.43;1.53;;;;;;;10.97;100.00;99179.59;4252974;27;20649;-80
2024/01/26 07:07:50;;;;;;;3.90;2.43;;;;;;;11.01;100.00;99179.38;4234644;27;20640;-81
2024/01/26 07:09:54;;;;;;;2.47;1.77;;;;;;;11.00;100.00;99172.44;4257132;27;20631;-81
2024/01/26 07:11:57;;;;;;;3.13;1.97;;;;;;;11.01;100.00;99171.53;4242259;27;21193;-81
2024/01/26 07:14:01;;;;;;;2.90;1.87;;;;;;;10.96;100.00;99167.47;4255371;27;20617;-81
2024/01/26 07:16:05;;;;;;;3.40;2.23;;;;;;;10.98;100.00;99170.88;4238015;27;20659;-80
2024/01/26 07:18:08;;;;;;;2.67;1.60;;;;;;;10.97;100.00;99166.56;4251179;27;20643;-81
2024/01/26 07:20:13;;;;;;;3.93;1.90;;;;;;;11.01;100.00;99163.72;4232888;27;20719;-82
2024/01/26 07:22:16;;;;;;;2.70;1.77;;;;;;;10.95;100.00;99158.81;4230928;27;20664;-84
2024/01/26 07:24:19;;;;;;;3.13;1.90;;;;;;;10.99;100.00;99159.47;4249017;27;20666;-81
2024/01/26 07:26:22;;;;;;;3.40;2.10;;;;;;;11.00;100.00;99155.97;4239337;27;20709;-79
2024/01/26 07:28:25;;;;;;;3.17;1.80;;;;;;;11.01;100.00;99157.66;4230474;27;20657;-80
2024/01/26 07:30:29;;;;;;;3.27;2.00;;;;;;;10.99;100.00;99152.50;4234942;27;20617;-82
2024/01/26 07:32:32;;;;;;;3.20;2.10;;;;;;;11.05;100.00;99156.53;4234750;27;20652;-82
2024/01/26 07:34:35;;;;;;;2.60;1.83;;;;;;;11.08;100.00;99144.19;4214269;27;20627;-81
2024/01/26 07:36:39;;;;;;;2.87;1.93;;;;;;;11.05;100.00;99152.19;4231727;27;20632;-81
2024/01/26 07:38:42;;;;;;;5.50;2.10;;;;;;;11.06;100.00;99150.41;4214957;27;20626;-81
2024/01/26 07:40:45;;;;;;;4.00;2.00;;;;;;;11.09;100.00;99142.41;4234365;27;20655;-81
2024/01/26 07:42:48;;;;;;;3.13;1.80;;;;;;;11.09;100.00;99135.41;4235469;27;21063;-81
2024/01/26 07:44:51;;;;;;;4.17;2.20;;;;;;;11.09;100.00;99147.63;4227508;27;20622;-80
2024/01/26 07:46:54;;;;;;;3.60;2.07;;;;;;;11.10;100.00;99139.72;4252635;27;20624;-83
2024/01/26 07:48:57;;;;;;;3.67;2.10;;;;;;;11.15;100.00;99136.88;4251641;27;20652;-81
2024/01/26 07:51:01;;;;;;;2.60;2.10;;;;;;;11.16;100.00;99133.34;4243170;27;20699;-78
2024/01/26 07:53:06;;;;;;;6.77;5.10;;;;;;;11.18;100.00;99147.97;4217246;27;20621;-81
2024/01/26 07:55:10;;;;;;;6.87;5.60;;;;;;;11.15;100.00;99144.69;4236852;27;20612;-80
2024/01/26 07:57:13;;;;;;;12.23;10.80;;;;;;;11.14;100.00;99151.69;4224249;27;20653;-80
2024/01/26 07:59:17;;;;;;;6.23;4.20;;;;;;;11.16;100.00;99139.41;4248414;27;20623;-81
2024/01/26 08:01:21;;;;;;;4.40;2.30;;;;;;;11.16;100.00;99134.19;4217316;27;20670;-81
2024/01/26 08:03:24;;;;;;;5.40;4.47;;;;;;;11.17;100.00;99135.88;4253860;27;20613;-80
2024/01/26 08:05:28;;;;;;;10.00;6.63;;;;;;;11.20;100.00;99140.94;4238625;27;20734;-79
2024/01/26 08:07:30;;;;;;;13.93;11.90;;;;;;;11.24;100.00;99131.16;4253936;27;20727;-79
2024/01/26 08:09:35;;;;;;;16.57;14.87;;;;;;;11.29;100.00;99127.38;4251894;27;20628;-79
2024/01/26 08:11:38;;;;;;;58.97;53.83;;;;;;;11.34;100.00;99133.19;4231716;27;20650;-78
2024/01/26 08:13:42;;;;;;;17.67;16.00;;;;;;;11.37;100.00;99135.63;4238012;27;21113;-80
2024/01/26 08:15:46;;;;;;;6.00;4.30;;;;;;;11.36;100.00;99145.22;4254838;27;20629;-80
2024/01/26 08:17:49;;;;;;;2.63;1.80;;;;;;;11.41;99.98;99150.19;4237716;27;21334;-78
2024/01/26 08:19:52;;;;;;;2.60;1.30;;;;;;;11.43;100.00;99143.97;4256023;27;20616;-78
2024/01/26 08:21:56;;;;;;;3.07;1.80;;;;;;;11.47;99.54;99134.22;4216874;28;20750;-79
2024/01/26 08:24:00;;;;;;;2.87;1.50;;;;;;;11.45;99.39;99136.03;4253771;27;20718;-78
2024/01/26 08:26:03;;;;;;;2.40;1.33;;;;;;;11.46;100.00;99143.78;4227686;27;20641;-78
2024/01/26 08:28:07;;;;;;;2.13;1.30;;;;;;;11.49;100.00;99137.59;4253830;27;20629;-79
2024/01/26 08:30:11;;;;;;;4.27;1.53;;;;;;;11.49;99.93;99137.59;4246755;27;20648;-78
2024/01/26 08:32:14;;;;;;;3.00;1.20;;;;;;;11.54;100.00;99144.22;4236412;27;20633;-78
2024/01/26 08:34:17;;;;;;;2.40;1.20;;;;;;;11.58;100.00;99139.72;4257865;27;20612;-81
2024/01/26 08:36:20;;;;;;;3.60;1.70;;;;;;;11.63;99.98;99130.66;4236871;27;20605;-81
2024/01/26 08:38:23;;;;;;;2.23;1.33;;;;;;;11.64;97.45;99134.97;4257131;27;20625;-81
2024/01/26 08:40:28;;;;;;;2.33;1.30;;;;;;;11.67;99.94;99126.13;4239493;27;21141;-81
2024/01/26 08:42:33;;;;;;;2.23;1.40;;;;;;;11.74;98.60;99124.84;4254209;27;20611;-81
2024/01/26 08:44:36;;;;;;;2.77;1.40;;;;;;;11.78;98.82;99121.97;4234497;27;20624;-81
2024/01/26 08:46:38;;;;;;;2.50;1.50;;;;;;;11.76;98.29;99116.00;4251315;27;20653;-81
2024/01/26 08:48:42;;;;;;;2.67;1.30;;;;;;;11.83;98.57;99125.16;4234300;27;20633;-81
2024/01/26 08:50:45;;;;;;;3.30;1.60;;;;;;;11.82;98.31;99108.63;4249974;27;21186;-84
2024/01/26 08:52:48;;;;;;;3.30;1.70;;;;;;;11.82;96.81;99110.41;4245492;27;20670;-81
2024/01/26 08:54:51;;;;;;;2.70;1.60;;;;;;;11.83;97.49;99097.25;4236770;27;20716;-81
2024/01/26 08:56:56;;;;;;;3.60;1.83;;;;;;;11.84;96.32;99092.88;4233845;27;21503;-83
2024/01/26 08:59:00;;;;;;;2.70;1.47;;;;;;;11.82;97.30;99095.56;4250597;27;21212;-83
2024/01/26 09:01:04;;;;;;;2.87;1.63;;;;;;;11.77;97.60;99087.16;4217667;28;20622;-83
2024/01/26 09:03:07;;;;;;;2.40;1.30;;;;;;;11.77;98.96;99084.53;4232261;27;20645;-83
2024/01/26 09:05:11;;;;;;;3.53;1.60;;;;;;;11.86;98.74;99088.38;4248663;27;20617;-83
2024/01/26 09:07:17;;;;;;;2.50;1.60;;;;;;;11.86;96.33;99088.38;4255384;27;20649;-83
2024/01/26 09:09:20;;;;;;;2.53;1.67;;;;;;;11.87;97.76;99088.28;4237379;27;20647;-83
2024/01/26 09:11:23;;;;;;;4.87;2.53;;;;;;;11.87;97.99;99090.91;4235302;27;20659;-83
2024/01/26 09:13:26;;;;;;;3.50;1.70;;;;;;;11.88;96.80;99076.91;4226643;27;20688;-83
2024/01/26 09:15:30;;;;;;;3.23;1.30;;;;;;;11.94;98.17;99084.41;4259433;27;20656;-83
2024/01/26 09:17:34;;;;;;;2.90;1.37;;;;;;;12.01;97.89;99079.66;4228078;27;20639;-83
2024/01/26 09:19:37;;;;;;;3.10;1.40;;;;;;;12.01;95.28;99079.66;4257422;27;20621;-83
2024/01/26 09:21:40;;;;;;;3.03;1.50;;;;;;;12.01;96.95;99075.28;4246600;27;20701;-82
2024/01/26 09:23:46;;;;;;;1.90;1.20;;;;;;;12.02;96.30;99070.91;4233987;27;21108;-83
2024/01/26 09:25:49;;;;;;;2.90;1.43;;;;;;;12.07;95.66;99074.06;4245612;27;20612;-83
2024/01/26 09:27:52;;;;;;;2.60;1.40;;;;;;;12.09;95.61;99077.44;4232113;27;20630;-83
2024/01/26 09:29:55;;;;;;;2.47;1.40;;;;;;;12.16;96.32;99084.81;4235190;27;20628;-82
2024/01/26 09:32:00;;;;;;;2.23;1.27;;;;;;;12.13;96.09;99078.94;4237202;27;20988;-83